sensor_id;sensor_type;location;lat;lon;timestamp;temperature;humidity
28460;DHT22;32528;45.712;9.192;2023-01-15T00:00:03;6.90;99.90
28460;DHT22;32528;45.712;9.192;2023-01-15T00:02:06;6.90;99.90
28460;DHT22;32528;45.712;9.192;2023-01-15T00:04:07;6.80;99.90
28460;DHT22;32528;45.712;9.192;2023-01-15T00:06:07;6.80;99.90
28460;DHT22;32528;45.712;9.192;2023-01-15T00:08:08;6.80;99.90
28460;DHT22;32528;45.712;9.192;2023-01-15T00:10:09;6.80;99.90
28460;DHT22;32528;45.712;9.192;2023-01-15T00:12:11;6.90;99.90
28460;DHT22;32528;45.712;9.192;2023-01-15T00:14:12;6.90;99.90
28460;DHT22;32528;45.712;9.192;2023-01-15T00:16:15;6.90;99.90
28460;DHT22;32528;45.712;9.192;2023-01-15T00:18:16;6.90;99.90
28460;DHT22;32528;45.712;9.192;2023-01-15T00:20:17;7.00;99.90
28460;DHT22;32528;45.712;9.192;2023-01-15T00:22:18;7.00;99.90
28460;DHT22;32528;45.712;9.192;2023-01-15T00:24:18;7.10;99.90
28460;DHT22;32528;45.712;9.192;2023-01-15T00:26:38;7.00;99.90
28460;DHT22;32528;45.712;9.192;2023-01-15T00:28:59;7.00;99.90
28460;DHT22;32528;45.712;9.192;2023-01-15T00:30:59;7.10;99.90
28460;DHT22;32528;45.712;9.192;2023-01-15T00:33:00;7.20;99.90
28460;DHT22;32528;45.712;9.192;2023-01-15T00:35:01;7.20;99.90
28460;DHT22;32528;45.712;9.192;2023-01-15T00:37:02;7.20;99.90
28460;DHT22;32528;45.712;9.192;2023-01-15T00:39:03;7.20;99.90
28460;DHT22;32528;45.712;9.192;2023-01-15T00:41:03;7.00;99.90
28460;DHT22;32528;45.712;9.192;2023-01-15T00:43:04;7.10;99.90
28460;DHT22;32528;45.712;9.192;2023-01-15T00:45:06;7.00;99.90
28460;DHT22;32528;45.712;9.192;2023-01-15T00:47:09;7.00;99.90
28460;DHT22;32528;45.712;9.192;2023-01-15T00:49:15;7.10;99.90
28460;DHT22;32528;45.712;9.192;2023-01-15T00:51:15;7.20;99.90
28460;DHT22;32528;45.712;9.192;2023-01-15T00:53:16;7.20;99.90
28460;DHT22;32528;45.712;9.192;2023-01-15T00:55:17;7.20;99.90
28460;DHT22;32528;45.712;9.192;2023-01-15T00:57:20;7.20;99.90
28460;DHT22;32528;45.712;9.192;2023-01-15T00:59:21;7.30;99.90
28460;DHT22;32528;45.712;9.192;2023-01-15T01:01:22;7.30;99.90
28460;DHT22;32528;45.712;9.192;2023-01-15T01:03:23;7.30;99.90
28460;DHT22;32528;45.712;9.192;2023-01-15T01:05:25;7.30;99.90
28460;DHT22;32528;45.712;9.192;2023-01-15T01:07:26;7.30;99.90
28460;DHT22;32528;45.712;9.192;2023-01-15T01:09:28;7.30;99.90
28460;DHT22;32528;45.712;9.192;2023-01-15T01:11:30;7.30;99.90
28460;DHT22;32528;45.712;9.192;2023-01-15T01:13:34;7.30;99.90
28460;DHT22;32528;45.712;9.192;2023-01-15T01:15:36;7.30;99.90
28460;DHT22;32528;45.712;9.192;2023-01-15T01:17:37;7.30;99.90
28460;DHT22;32528;45.712;9.192;2023-01-15T01:19:38;7.30;99.90
28460;DHT22;32528;45.712;9.192;2023-01-15T01:21:41;7.30;99.90
28460;DHT22;32528;45.712;9.192;2023-01-15T01:23:42;7.30;99.90
28460;DHT22;32528;45.712;9.192;2023-01-15T01:25:43;7.20;99.90
28460;DHT22;32528;45.712;9.192;2023-01-15T01:27:44;7.20;99.90
28460;DHT22;32528;45.712;9.192;2023-01-15T01:29:46;7.20;99.90
28460;DHT22;32528;45.712;9.192;2023-01-15T01:31:46;7.20;99.90
28460;DHT22;32528;45.712;9.192;2023-01-15T01:33:48;7.20;99.90
28460;DHT22;32528;45.712;9.192;2023-01-15T01:35:49;7.20;99.90
28460;DHT22;32528;45.712;9.192;2023-01-15T01:37:50;7.20;99.90
28460;DHT22;32528;45.712;9.192;2023-01-15T01:39:51;7.10;99.90
28460;DHT22;32528;45.712;9.192;2023-01-15T01:41:52;7.10;99.90
28460;DHT22;32528;45.712;9.192;2023-01-15T01:43:58;7.10;99.90
28460;DHT22;32528;45.712;9.192;2023-01-15T01:45:59;7.20;99.90
28460;DHT22;32528;45.712;9.192;2023-01-15T01:48:02;7.20;99.90
28460;DHT22;32528;45.712;9.192;2023-01-15T01:50:06;7.20;99.90
28460;DHT22;32528;45.712;9.192;2023-01-15T01:52:08;7.10;99.90
28460;DHT22;32528;45.712;9.192;2023-01-15T01:54:11;7.10;99.90
28460;DHT22;32528;45.712;9.192;2023-01-15T01:56:13;7.00;99.90
28460;DHT22;32528;45.712;9.192;2023-01-15T01:58:17;7.00;99.90
28460;DHT22;32528;45.712;9.192;2023-01-15T02:00:19;7.00;99.90
28460;DHT22;32528;45.712;9.192;2023-01-15T02:02:20;7.00;99.90
28460;DHT22;32528;45.712;9.192;2023-01-15T02:04:22;7.00;99.90
28460;DHT22;32528;45.712;9.192;2023-01-15T02:06:24;7.10;99.90
28460;DHT22;32528;45.712;9.192;2023-01-15T02:08:26;7.10;99.90
28460;DHT22;32528;45.712;9.192;2023-01-15T02:10:28;7.10;99.90
28460;DHT22;32528;45.712;9.192;2023-01-15T02:12:34;7.10;99.90
28460;DHT22;32528;45.712;9.192;2023-01-15T02:14:38;7.10;99.90
28460;DHT22;32528;45.712;9.192;2023-01-15T02:21:11;7.20;99.90
28460;DHT22;32528;45.712;9.192;2023-01-15T02:25:31;7.30;99.90
28460;DHT22;32528;45.712;9.192;2023-01-15T02:27:35;7.30;99.90
28460;DHT22;32528;45.712;9.192;2023-01-15T02:29:50;7.30;99.90
28460;DHT22;32528;45.712;9.192;2023-01-15T02:31:54;7.30;99.90
28460;DHT22;32528;45.712;9.192;2023-01-15T02:34:00;7.20;99.90
28460;DHT22;32528;45.712;9.192;2023-01-15T02:36:04;7.20;99.90
28460;DHT22;32528;45.712;9.192;2023-01-15T02:38:09;7.20;99.90
28460;DHT22;32528;45.712;9.192;2023-01-15T02:40:10;7.30;99.90
28460;DHT22;32528;45.712;9.192;2023-01-15T02:42:14;7.20;99.90
28460;DHT22;32528;45.712;9.192;2023-01-15T02:44:20;7.30;99.90
28460;DHT22;32528;45.712;9.192;2023-01-15T02:46:26;7.30;99.90
28460;DHT22;32528;45.712;9.192;2023-01-15T02:48:28;7.30;99.90
28460;DHT22;32528;45.712;9.192;2023-01-15T02:50:30;7.40;99.90
28460;DHT22;32528;45.712;9.192;2023-01-15T02:52:43;7.40;99.90
28460;DHT22;32528;45.712;9.192;2023-01-15T02:54:58;7.40;99.90
28460;DHT22;32528;45.712;9.192;2023-01-15T02:57:01;7.40;99.90
28460;DHT22;32528;45.712;9.192;2023-01-15T02:59:04;7.30;99.90
28460;DHT22;32528;45.712;9.192;2023-01-15T03:01:10;7.30;99.90
28460;DHT22;32528;45.712;9.192;2023-01-15T03:03:14;7.30;99.90
28460;DHT22;32528;45.712;9.192;2023-01-15T03:05:50;7.20;99.90
28460;DHT22;32528;45.712;9.192;2023-01-15T03:07:45;7.30;99.90
28460;DHT22;32528;45.712;9.192;2023-01-15T03:09:48;7.30;99.90
28460;DHT22;32528;45.712;9.192;2023-01-15T03:11:53;7.20;99.90
28460;DHT22;32528;45.712;9.192;2023-01-15T03:14:02;7.30;99.90
28460;DHT22;32528;45.712;9.192;2023-01-15T03:16:07;7.30;99.90
28460;DHT22;32528;45.712;9.192;2023-01-15T03:18:33;7.30;99.90
28460;DHT22;32528;45.712;9.192;2023-01-15T03:20:35;7.40;99.90
28460;DHT22;32528;45.712;9.192;2023-01-15T03:22:40;7.40;99.90
28460;DHT22;32528;45.712;9.192;2023-01-15T03:27:20;7.20;99.90
28460;DHT22;32528;45.712;9.192;2023-01-15T03:29:28;7.20;99.90
28460;DHT22;32528;45.712;9.192;2023-01-15T03:31:29;7.20;99.90
28460;DHT22;32528;45.712;9.192;2023-01-15T03:33:32;7.30;99.90
28460;DHT22;32528;45.712;9.192;2023-01-15T03:35:53;7.20;99.90
28460;DHT22;32528;45.712;9.192;2023-01-15T03:38:04;7.20;99.90
28460;DHT22;32528;45.712;9.192;2023-01-15T03:40:07;7.20;99.90
28460;DHT22;32528;45.712;9.192;2023-01-15T03:51:30;7.30;99.90
28460;DHT22;32528;45.712;9.192;2023-01-15T03:53:34;7.40;99.90
28460;DHT22;32528;45.712;9.192;2023-01-15T03:57:58;7.40;99.90
28460;DHT22;32528;45.712;9.192;2023-01-15T04:00:01;7.40;99.90
28460;DHT22;32528;45.712;9.192;2023-01-15T04:02:15;7.40;99.90
28460;DHT22;32528;45.712;9.192;2023-01-15T04:04:18;7.40;99.90
28460;DHT22;32528;45.712;9.192;2023-01-15T04:06:19;7.40;99.90
28460;DHT22;32528;45.712;9.192;2023-01-15T04:08:21;7.40;99.90
28460;DHT22;32528;45.712;9.192;2023-01-15T04:10:24;7.50;99.90
28460;DHT22;32528;45.712;9.192;2023-01-15T04:12:25;7.40;99.90
28460;DHT22;32528;45.712;9.192;2023-01-15T04:14:30;7.40;99.90
28460;DHT22;32528;45.712;9.192;2023-01-15T04:16:32;7.40;99.90
28460;DHT22;32528;45.712;9.192;2023-01-15T04:18:36;7.40;99.90
28460;DHT22;32528;45.712;9.192;2023-01-15T04:20:37;7.40;99.90
28460;DHT22;32528;45.712;9.192;2023-01-15T04:22:38;7.40;99.90
28460;DHT22;32528;45.712;9.192;2023-01-15T04:24:39;7.50;99.90
28460;DHT22;32528;45.712;9.192;2023-01-15T04:26:40;7.50;99.90
28460;DHT22;32528;45.712;9.192;2023-01-15T04:28:40;7.50;99.90
28460;DHT22;32528;45.712;9.192;2023-01-15T04:30:42;7.50;99.90
28460;DHT22;32528;45.712;9.192;2023-01-15T04:32:43;7.50;99.90
28460;DHT22;32528;45.712;9.192;2023-01-15T04:34:44;7.60;99.90
28460;DHT22;32528;45.712;9.192;2023-01-15T04:36:44;7.50;99.90
28460;DHT22;32528;45.712;9.192;2023-01-15T04:38:47;7.50;99.90
28460;DHT22;32528;45.712;9.192;2023-01-15T04:40:47;7.60;99.90
28460;DHT22;32528;45.712;9.192;2023-01-15T04:43:08;7.50;99.90
28460;DHT22;32528;45.712;9.192;2023-01-15T04:45:28;7.60;99.90
28460;DHT22;32528;45.712;9.192;2023-01-15T04:47:29;7.60;99.90
28460;DHT22;32528;45.712;9.192;2023-01-15T04:49:30;7.60;99.90
28460;DHT22;32528;45.712;9.192;2023-01-15T04:51:33;7.70;99.90
28460;DHT22;32528;45.712;9.192;2023-01-15T04:53:34;7.70;99.90
28460;DHT22;32528;45.712;9.192;2023-01-15T04:55:34;7.70;99.90
28460;DHT22;32528;45.712;9.192;2023-01-15T04:57:35;7.70;99.90
28460;DHT22;32528;45.712;9.192;2023-01-15T04:59:36;7.70;99.90
28460;DHT22;32528;45.712;9.192;2023-01-15T05:01:36;7.70;99.90
28460;DHT22;32528;45.712;9.192;2023-01-15T05:03:37;7.60;99.90
28460;DHT22;32528;45.712;9.192;2023-01-15T05:05:38;7.50;99.90
28460;DHT22;32528;45.712;9.192;2023-01-15T05:07:38;7.60;99.90
28460;DHT22;32528;45.712;9.192;2023-01-15T05:09:39;7.60;99.90
28460;DHT22;32528;45.712;9.192;2023-01-15T05:11:40;7.60;99.90
28460;DHT22;32528;45.712;9.192;2023-01-15T05:13:40;7.60;99.90
28460;DHT22;32528;45.712;9.192;2023-01-15T05:15:41;7.60;99.90
28460;DHT22;32528;45.712;9.192;2023-01-15T05:17:41;7.60;99.90
28460;DHT22;32528;45.712;9.192;2023-01-15T05:19:42;7.60;99.90
28460;DHT22;32528;45.712;9.192;2023-01-15T05:21:43;7.60;99.90
28460;DHT22;32528;45.712;9.192;2023-01-15T05:23:45;7.60;99.90
28460;DHT22;32528;45.712;9.192;2023-01-15T05:25:45;7.60;99.90
28460;DHT22;32528;45.712;9.192;2023-01-15T05:27:47;7.60;99.90
28460;DHT22;32528;45.712;9.192;2023-01-15T05:29:48;7.50;99.90
28460;DHT22;32528;45.712;9.192;2023-01-15T05:31:49;7.50;99.90
28460;DHT22;32528;45.712;9.192;2023-01-15T05:33:50;7.50;99.90
28460;DHT22;32528;45.712;9.192;2023-01-15T05:35:51;7.50;99.90
28460;DHT22;32528;45.712;9.192;2023-01-15T05:37:52;7.50;99.90
28460;DHT22;32528;45.712;9.192;2023-01-15T05:39:52;7.50;99.90
28460;DHT22;32528;45.712;9.192;2023-01-15T05:41:53;7.50;99.90
28460;DHT22;32528;45.712;9.192;2023-01-15T05:43:55;7.40;99.90
28460;DHT22;32528;45.712;9.192;2023-01-15T05:45:59;7.30;99.90
28460;DHT22;32528;45.712;9.192;2023-01-15T05:48:00;7.30;99.90
28460;DHT22;32528;45.712;9.192;2023-01-15T05:50:01;7.30;99.90
28460;DHT22;32528;45.712;9.192;2023-01-15T05:52:02;7.30;99.90
28460;DHT22;32528;45.712;9.192;2023-01-15T05:54:03;7.30;99.90
28460;DHT22;32528;45.712;9.192;2023-01-15T05:56:05;7.40;99.90
28460;DHT22;32528;45.712;9.192;2023-01-15T05:58:06;7.40;99.90
28460;DHT22;32528;45.712;9.192;2023-01-15T06:00:07;7.50;99.90
28460;DHT22;32528;45.712;9.192;2023-01-15T06:02:13;7.50;99.90
28460;DHT22;32528;45.712;9.192;2023-01-15T06:04:14;7.50;99.90
28460;DHT22;32528;45.712;9.192;2023-01-15T06:06:17;7.60;99.90
28460;DHT22;32528;45.712;9.192;2023-01-15T06:08:18;7.50;99.90
28460;DHT22;32528;45.712;9.192;2023-01-15T06:10:19;7.50;99.90
28460;DHT22;32528;45.712;9.192;2023-01-15T06:12:20;7.50;99.90
28460;DHT22;32528;45.712;9.192;2023-01-15T06:14:21;7.50;99.90
28460;DHT22;32528;45.712;9.192;2023-01-15T06:16:22;7.50;99.90
28460;DHT22;32528;45.712;9.192;2023-01-15T06:18:22;7.50;99.90
28460;DHT22;32528;45.712;9.192;2023-01-15T06:20:23;7.50;99.90
28460;DHT22;32528;45.712;9.192;2023-01-15T06:22:24;7.50;99.90
28460;DHT22;32528;45.712;9.192;2023-01-15T06:24:25;7.60;99.90
28460;DHT22;32528;45.712;9.192;2023-01-15T06:26:26;7.60;99.90
28460;DHT22;32528;45.712;9.192;2023-01-15T06:28:27;7.60;99.90
28460;DHT22;32528;45.712;9.192;2023-01-15T06:30:28;7.50;99.90
28460;DHT22;32528;45.712;9.192;2023-01-15T06:32:29;7.50;99.90
28460;DHT22;32528;45.712;9.192;2023-01-15T06:34:30;7.50;99.90
28460;DHT22;32528;45.712;9.192;2023-01-15T06:36:30;7.50;99.90
28460;DHT22;32528;45.712;9.192;2023-01-15T06:38:31;7.50;99.90
28460;DHT22;32528;45.712;9.192;2023-01-15T06:40:32;7.60;99.90
28460;DHT22;32528;45.712;9.192;2023-01-15T06:42:33;7.60;99.90
28460;DHT22;32528;45.712;9.192;2023-01-15T06:44:52;7.60;99.90
28460;DHT22;32528;45.712;9.192;2023-01-15T06:47:12;7.60;99.90
28460;DHT22;32528;45.712;9.192;2023-01-15T06:49:24;7.70;99.90
28460;DHT22;32528;45.712;9.192;2023-01-15T06:51:25;7.70;99.90
28460;DHT22;32528;45.712;9.192;2023-01-15T06:53:26;7.80;99.90
28460;DHT22;32528;45.712;9.192;2023-01-15T06:55:27;7.80;99.90
28460;DHT22;32528;45.712;9.192;2023-01-15T06:57:28;7.80;99.90
28460;DHT22;32528;45.712;9.192;2023-01-15T06:59:28;7.80;99.90
28460;DHT22;32528;45.712;9.192;2023-01-15T07:01:29;7.80;99.90
28460;DHT22;32528;45.712;9.192;2023-01-15T07:03:30;7.90;99.90
28460;DHT22;32528;45.712;9.192;2023-01-15T07:05:32;7.90;99.90
28460;DHT22;32528;45.712;9.192;2023-01-15T07:07:33;7.80;99.90
28460;DHT22;32528;45.712;9.192;2023-01-15T07:09:34;7.80;99.90
28460;DHT22;32528;45.712;9.192;2023-01-15T07:11:35;7.80;99.90
28460;DHT22;32528;45.712;9.192;2023-01-15T07:13:48;7.80;99.90
28460;DHT22;32528;45.712;9.192;2023-01-15T07:15:49;7.80;99.90
28460;DHT22;32528;45.712;9.192;2023-01-15T07:17:52;7.80;99.90
28460;DHT22;32528;45.712;9.192;2023-01-15T07:19:53;7.90;99.90
28460;DHT22;32528;45.712;9.192;2023-01-15T07:21:55;8.00;99.90
28460;DHT22;32528;45.712;9.192;2023-01-15T07:23:58;8.00;99.90
28460;DHT22;32528;45.712;9.192;2023-01-15T07:25:59;8.00;99.90
28460;DHT22;32528;45.712;9.192;2023-01-15T07:28:00;8.10;99.90
28460;DHT22;32528;45.712;9.192;2023-01-15T07:30:00;8.10;99.90
28460;DHT22;32528;45.712;9.192;2023-01-15T07:32:01;8.00;99.90
28460;DHT22;32528;45.712;9.192;2023-01-15T07:34:03;8.00;99.90
28460;DHT22;32528;45.712;9.192;2023-01-15T07:36:04;8.00;99.90
28460;DHT22;32528;45.712;9.192;2023-01-15T07:38:05;8.00;99.90
28460;DHT22;32528;45.712;9.192;2023-01-15T07:40:06;8.00;99.90
28460;DHT22;32528;45.712;9.192;2023-01-15T07:42:08;8.00;99.90
28460;DHT22;32528;45.712;9.192;2023-01-15T07:44:28;8.00;99.90
28460;DHT22;32528;45.712;9.192;2023-01-15T07:46:47;8.00;99.90
28460;DHT22;32528;45.712;9.192;2023-01-15T07:49:08;8.20;99.90
28460;DHT22;32528;45.712;9.192;2023-01-15T07:51:27;8.10;99.90
28460;DHT22;32528;45.712;9.192;2023-01-15T07:53:28;8.10;99.90
28460;DHT22;32528;45.712;9.192;2023-01-15T07:55:29;8.10;99.90
28460;DHT22;32528;45.712;9.192;2023-01-15T07:57:29;8.10;99.90
28460;DHT22;32528;45.712;9.192;2023-01-15T07:59:30;8.10;99.90
28460;DHT22;32528;45.712;9.192;2023-01-15T08:01:30;8.10;99.90
28460;DHT22;32528;45.712;9.192;2023-01-15T08:03:31;8.10;99.90
28460;DHT22;32528;45.712;9.192;2023-01-15T08:05:32;8.00;99.90
28460;DHT22;32528;45.712;9.192;2023-01-15T08:07:36;8.00;99.90
28460;DHT22;32528;45.712;9.192;2023-01-15T08:09:37;8.00;99.90
28460;DHT22;32528;45.712;9.192;2023-01-15T08:11:37;8.00;99.90
28460;DHT22;32528;45.712;9.192;2023-01-15T08:13:57;8.00;99.90
28460;DHT22;32528;45.712;9.192;2023-01-15T08:16:36;8.00;99.90
28460;DHT22;32528;45.712;9.192;2023-01-15T08:18:37;8.10;99.90
28460;DHT22;32528;45.712;9.192;2023-01-15T08:20:39;8.10;99.90
28460;DHT22;32528;45.712;9.192;2023-01-15T08:22:40;8.20;99.90
28460;DHT22;32528;45.712;9.192;2023-01-15T08:24:41;8.20;99.90
28460;DHT22;32528;45.712;9.192;2023-01-15T08:26:42;8.40;99.90
28460;DHT22;32528;45.712;9.192;2023-01-15T08:28:43;8.50;99.90
28460;DHT22;32528;45.712;9.192;2023-01-15T08:30:44;8.60;99.90
28460;DHT22;32528;45.712;9.192;2023-01-15T08:32:44;8.60;99.90
28460;DHT22;32528;45.712;9.192;2023-01-15T08:34:45;8.60;99.90
28460;DHT22;32528;45.712;9.192;2023-01-15T08:36:46;8.60;99.90
28460;DHT22;32528;45.712;9.192;2023-01-15T08:38:48;8.60;99.90
28460;DHT22;32528;45.712;9.192;2023-01-15T08:40:53;8.60;99.90
28460;DHT22;32528;45.712;9.192;2023-01-15T08:43:02;8.70;99.90
28460;DHT22;32528;45.712;9.192;2023-01-15T08:45:04;8.60;99.90
28460;DHT22;32528;45.712;9.192;2023-01-15T08:47:05;8.70;99.90
28460;DHT22;32528;45.712;9.192;2023-01-15T08:49:07;8.70;99.90
28460;DHT22;32528;45.712;9.192;2023-01-15T08:51:08;8.70;99.90
28460;DHT22;32528;45.712;9.192;2023-01-15T08:53:09;8.70;99.90
28460;DHT22;32528;45.712;9.192;2023-01-15T08:55:10;8.80;99.90
28460;DHT22;32528;45.712;9.192;2023-01-15T08:57:11;8.80;99.90
28460;DHT22;32528;45.712;9.192;2023-01-15T08:59:13;8.80;99.90
28460;DHT22;32528;45.712;9.192;2023-01-15T09:01:14;8.80;99.90
28460;DHT22;32528;45.712;9.192;2023-01-15T09:03:15;8.80;99.90
28460;DHT22;32528;45.712;9.192;2023-01-15T09:05:16;8.90;99.90
28460;DHT22;32528;45.712;9.192;2023-01-15T09:07:16;8.90;99.90
28460;DHT22;32528;45.712;9.192;2023-01-15T09:09:17;8.90;99.90
28460;DHT22;32528;45.712;9.192;2023-01-15T09:11:18;9.00;99.90
28460;DHT22;32528;45.712;9.192;2023-01-15T09:13:19;9.00;99.90
28460;DHT22;32528;45.712;9.192;2023-01-15T09:15:19;9.00;99.90
28460;DHT22;32528;45.712;9.192;2023-01-15T09:17:20;9.10;99.90
28460;DHT22;32528;45.712;9.192;2023-01-15T09:19:20;9.00;99.90
28460;DHT22;32528;45.712;9.192;2023-01-15T09:21:21;9.00;99.90
28460;DHT22;32528;45.712;9.192;2023-01-15T09:23:22;9.00;99.90
28460;DHT22;32528;45.712;9.192;2023-01-15T09:25:22;9.00;99.90
28460;DHT22;32528;45.712;9.192;2023-01-15T09:27:24;9.00;99.90
28460;DHT22;32528;45.712;9.192;2023-01-15T09:29:25;8.90;99.90
28460;DHT22;32528;45.712;9.192;2023-01-15T09:31:26;8.90;99.90
28460;DHT22;32528;45.712;9.192;2023-01-15T09:33:27;8.90;99.90
28460;DHT22;32528;45.712;9.192;2023-01-15T09:35:28;8.90;99.90
28460;DHT22;32528;45.712;9.192;2023-01-15T09:37:28;9.00;99.90
28460;DHT22;32528;45.712;9.192;2023-01-15T09:39:29;8.90;99.90
28460;DHT22;32528;45.712;9.192;2023-01-15T09:41:34;9.00;99.90
28460;DHT22;32528;45.712;9.192;2023-01-15T09:44:07;8.90;99.90
28460;DHT22;32528;45.712;9.192;2023-01-15T09:46:22;8.90;99.90
28460;DHT22;32528;45.712;9.192;2023-01-15T09:55:25;8.90;99.90
28460;DHT22;32528;45.712;9.192;2023-01-15T09:57:26;8.90;99.90
28460;DHT22;32528;45.712;9.192;2023-01-15T09:59:32;8.90;99.90
28460;DHT22;32528;45.712;9.192;2023-01-15T10:01:33;8.80;99.90
28460;DHT22;32528;45.712;9.192;2023-01-15T10:03:37;8.80;99.90
28460;DHT22;32528;45.712;9.192;2023-01-15T10:05:43;8.90;99.90
28460;DHT22;32528;45.712;9.192;2023-01-15T10:07:50;9.00;99.90
28460;DHT22;32528;45.712;9.192;2023-01-15T10:09:58;9.10;99.90
28460;DHT22;32528;45.712;9.192;2023-01-15T10:12:02;9.10;99.90
28460;DHT22;32528;45.712;9.192;2023-01-15T10:15:09;9.20;99.90
28460;DHT22;32528;45.712;9.192;2023-01-15T10:16:47;9.20;99.90
28460;DHT22;32528;45.712;9.192;2023-01-15T10:18:48;9.20;99.90
28460;DHT22;32528;45.712;9.192;2023-01-15T10:25:15;9.30;99.90
28460;DHT22;32528;45.712;9.192;2023-01-15T10:27:20;9.30;99.90
28460;DHT22;32528;45.712;9.192;2023-01-15T10:31:24;9.40;99.90
28460;DHT22;32528;45.712;9.192;2023-01-15T10:37:47;9.40;99.90
28460;DHT22;32528;45.712;9.192;2023-01-15T10:46:44;9.50;99.90
28460;DHT22;32528;45.712;9.192;2023-01-15T10:48:50;9.40;99.90
28460;DHT22;32528;45.712;9.192;2023-01-15T10:50:51;9.40;99.90
28460;DHT22;32528;45.712;9.192;2023-01-15T10:53:01;9.30;99.90
28460;DHT22;32528;45.712;9.192;2023-01-15T10:55:09;9.30;99.90
28460;DHT22;32528;45.712;9.192;2023-01-15T10:57:37;9.20;99.90
28460;DHT22;32528;45.712;9.192;2023-01-15T10:59:46;9.20;99.90
28460;DHT22;32528;45.712;9.192;2023-01-15T11:01:49;9.30;99.90
28460;DHT22;32528;45.712;9.192;2023-01-15T11:03:54;9.30;99.90
28460;DHT22;32528;45.712;9.192;2023-01-15T11:05:54;9.40;99.90
28460;DHT22;32528;45.712;9.192;2023-01-15T11:07:57;9.40;99.90
28460;DHT22;32528;45.712;9.192;2023-01-15T11:09:59;9.40;99.90
28460;DHT22;32528;45.712;9.192;2023-01-15T11:14:18;9.30;99.90
28460;DHT22;32528;45.712;9.192;2023-01-15T11:16:37;9.30;99.90
28460;DHT22;32528;45.712;9.192;2023-01-15T11:18:39;9.30;99.90
28460;DHT22;32528;45.712;9.192;2023-01-15T11:21:00;9.20;99.90
28460;DHT22;32528;45.712;9.192;2023-01-15T11:23:05;9.30;99.90
28460;DHT22;32528;45.712;9.192;2023-01-15T11:25:06;9.30;99.90
28460;DHT22;32528;45.712;9.192;2023-01-15T11:27:12;9.30;99.90
28460;DHT22;32528;45.712;9.192;2023-01-15T11:29:15;9.30;99.90
28460;DHT22;32528;45.712;9.192;2023-01-15T11:31:19;9.40;99.90
28460;DHT22;32528;45.712;9.192;2023-01-15T11:33:22;9.40;99.90
28460;DHT22;32528;45.712;9.192;2023-01-15T11:35:24;9.50;99.90
28460;DHT22;32528;45.712;9.192;2023-01-15T11:37:26;9.50;99.90
28460;DHT22;32528;45.712;9.192;2023-01-15T11:39:27;9.60;99.90
28460;DHT22;32528;45.712;9.192;2023-01-15T11:41:31;9.70;99.90
28460;DHT22;32528;45.712;9.192;2023-01-15T11:43:56;9.70;99.90
28460;DHT22;32528;45.712;9.192;2023-01-15T11:46:24;9.80;99.90
28460;DHT22;32528;45.712;9.192;2023-01-15T11:48:44;9.90;99.90
28460;DHT22;32528;45.712;9.192;2023-01-15T11:51:05;9.80;99.90
28460;DHT22;32528;45.712;9.192;2023-01-15T11:53:07;9.70;99.90
28460;DHT22;32528;45.712;9.192;2023-01-15T11:55:23;9.70;99.90
28460;DHT22;32528;45.712;9.192;2023-01-15T11:57:25;9.70;99.90
28460;DHT22;32528;45.712;9.192;2023-01-15T11:59:27;9.80;99.90
28460;DHT22;32528;45.712;9.192;2023-01-15T12:01:33;9.80;99.90
28460;DHT22;32528;45.712;9.192;2023-01-15T12:03:35;9.80;99.90
28460;DHT22;32528;45.712;9.192;2023-01-15T12:05:36;9.70;99.90
28460;DHT22;32528;45.712;9.192;2023-01-15T12:07:37;9.70;99.90
28460;DHT22;32528;45.712;9.192;2023-01-15T12:11:45;9.90;99.90
28460;DHT22;32528;45.712;9.192;2023-01-15T12:20:34;9.90;99.90
28460;DHT22;32528;45.712;9.192;2023-01-15T12:25:17;10.10;99.90
28460;DHT22;32528;45.712;9.192;2023-01-15T12:27:19;10.20;99.90
28460;DHT22;32528;45.712;9.192;2023-01-15T12:30:08;10.10;99.90
28460;DHT22;32528;45.712;9.192;2023-01-15T12:31:48;10.10;99.90
28460;DHT22;32528;45.712;9.192;2023-01-15T12:33:58;10.00;99.90
28460;DHT22;32528;45.712;9.192;2023-01-15T12:36:01;10.00;99.90
28460;DHT22;32528;45.712;9.192;2023-01-15T12:38:15;9.90;99.90
28460;DHT22;32528;45.712;9.192;2023-01-15T12:40:20;9.90;99.90
28460;DHT22;32528;45.712;9.192;2023-01-15T12:42:23;9.90;99.90
28460;DHT22;32528;45.712;9.192;2023-01-15T12:44:45;9.90;99.90
28460;DHT22;32528;45.712;9.192;2023-01-15T12:47:02;9.90;99.90
28460;DHT22;32528;45.712;9.192;2023-01-15T12:49:15;9.90;99.90
28460;DHT22;32528;45.712;9.192;2023-01-15T12:51:21;9.80;99.90
28460;DHT22;32528;45.712;9.192;2023-01-15T12:55:41;9.70;99.90
28460;DHT22;32528;45.712;9.192;2023-01-15T12:57:45;9.70;99.90
28460;DHT22;32528;45.712;9.192;2023-01-15T12:59:47;9.70;99.90
28460;DHT22;32528;45.712;9.192;2023-01-15T13:04:27;9.70;99.90
28460;DHT22;32528;45.712;9.192;2023-01-15T13:06:29;9.70;99.90
28460;DHT22;32528;45.712;9.192;2023-01-15T13:10:34;9.70;99.90
28460;DHT22;32528;45.712;9.192;2023-01-15T13:12:40;9.70;99.90
28460;DHT22;32528;45.712;9.192;2023-01-15T13:14:41;9.70;99.90
28460;DHT22;32528;45.712;9.192;2023-01-15T13:16:53;9.80;99.90
28460;DHT22;32528;45.712;9.192;2023-01-15T13:21:17;9.80;99.90
28460;DHT22;32528;45.712;9.192;2023-01-15T13:25:29;9.70;99.90
28460;DHT22;32528;45.712;9.192;2023-01-15T13:33:59;9.70;99.90
28460;DHT22;32528;45.712;9.192;2023-01-15T13:36:23;9.70;99.90
28460;DHT22;32528;45.712;9.192;2023-01-15T13:38:24;9.70;99.90
28460;DHT22;32528;45.712;9.192;2023-01-15T13:40:30;9.70;99.90
28460;DHT22;32528;45.712;9.192;2023-01-15T13:42:34;9.60;99.90
28460;DHT22;32528;45.712;9.192;2023-01-15T13:44:46;9.60;99.90
28460;DHT22;32528;45.712;9.192;2023-01-15T13:49:19;9.70;99.90
28460;DHT22;32528;45.712;9.192;2023-01-15T13:51:32;9.60;99.90
28460;DHT22;32528;45.712;9.192;2023-01-15T13:53:37;9.60;99.90
28460;DHT22;32528;45.712;9.192;2023-01-15T13:55:40;9.70;99.90
28460;DHT22;32528;45.712;9.192;2023-01-15T13:57:42;9.60;99.90
28460;DHT22;32528;45.712;9.192;2023-01-15T13:59:44;9.70;99.90
28460;DHT22;32528;45.712;9.192;2023-01-15T14:01:45;9.70;99.90
28460;DHT22;32528;45.712;9.192;2023-01-15T14:04:30;9.70;99.90
28460;DHT22;32528;45.712;9.192;2023-01-15T14:06:12;9.70;99.90
28460;DHT22;32528;45.712;9.192;2023-01-15T14:08:14;9.70;99.90
28460;DHT22;32528;45.712;9.192;2023-01-15T14:14:26;9.60;99.90
28460;DHT22;32528;45.712;9.192;2023-01-15T14:27:14;9.50;99.90
28460;DHT22;32528;45.712;9.192;2023-01-15T14:30:02;9.50;99.90
28460;DHT22;32528;45.712;9.192;2023-01-15T14:31:48;9.50;99.90
28460;DHT22;32528;45.712;9.192;2023-01-15T14:33:57;9.40;99.90
28460;DHT22;32528;45.712;9.192;2023-01-15T14:36:19;9.50;99.90
28460;DHT22;32528;45.712;9.192;2023-01-15T14:38:22;9.50;99.90
28460;DHT22;32528;45.712;9.192;2023-01-15T14:40:25;9.50;99.90
28460;DHT22;32528;45.712;9.192;2023-01-15T14:42:31;9.50;99.90
28460;DHT22;32528;45.712;9.192;2023-01-15T14:44:58;9.40;99.90
28460;DHT22;32528;45.712;9.192;2023-01-15T14:47:01;9.40;99.90
28460;DHT22;32528;45.712;9.192;2023-01-15T14:49:02;9.30;99.90
28460;DHT22;32528;45.712;9.192;2023-01-15T14:51:23;9.20;99.90